Aviation Digital Data Service (ADDS)

Output produced by METARs form (1328 UTC 08 May 2021)
found at http://aviationweather.gov/metar/data/
 
KHDC 081120Z 0812/0912 00000KT P6SM FEW250 
     FM081700 16009KT P6SM FEW250 
     FM091000 VRB04KT P6SM FEW030